Time;durP1;ratioP1;P1;durP2;ratioP2;P2;SDS_P1;SDS_P2;PMS_P1;PMS_P2;Temp;Humidity;BMP_temperature;BMP_pressure;BME280_temperature;BME280_humidity;BME280_pressure;Samples;Min_cycle;Max_cycle;Signal;HPM_P1;HPM_P2
2021/06/22 00:00:09;;;;;;;1.30;1.17;;;;;;;13.14;100.00;100187.22;4972115;28;20182;-74
2021/06/22 00:02:35;;;;;;;6.47;1.37;;;;;;;13.15;100.00;100186.88;4999012;28;20209;-74
2021/06/22 00:05:03;;;;;;;1.40;1.30;;;;;;;13.17;100.00;100190.13;4994114;28;20201;-74
2021/06/22 00:07:28;;;;;;;1.23;1.13;;;;;;;13.21;100.00;100195.75;4993369;28;20252;-74
2021/06/22 00:09:54;;;;;;;1.90;1.50;;;;;;;13.25;100.00;100193.94;4976628;28;20643;-74
2021/06/22 00:12:19;;;;;;;1.13;1.03;;;;;;;13.22;100.00;100192.69;4994119;28;20205;-74
2021/06/22 00:14:44;;;;;;;0.60;0.60;;;;;;;13.27;100.00;100206.19;4993197;28;20212;-75
2021/06/22 00:17:10;;;;;;;0.63;0.63;;;;;;;13.27;100.00;100203.44;4993357;28;20260;-75
2021/06/22 00:19:35;;;;;;;3.70;1.07;;;;;;;13.23;100.00;100210.75;4993213;28;20573;-74
2021/06/22 00:22:01;;;;;;;1.10;1.07;;;;;;;13.29;100.00;100208.59;4993376;28;20220;-76
2021/06/22 00:24:26;;;;;;;1.13;1.03;;;;;;;13.33;100.00;100209.53;4993306;28;20177;-74
2021/06/22 00:26:51;;;;;;;0.87;0.87;;;;;;;13.23;100.00;100193.47;4993359;28;20188;-73
2021/06/22 00:29:17;;;;;;;2.00;0.93;;;;;;;13.18;100.00;100196.41;4993105;28;20177;-75
2021/06/22 00:31:42;;;;;;;1.10;1.00;;;;;;;13.15;100.00;100200.59;4993186;28;20625;-74
2021/06/22 00:34:07;;;;;;;1.17;1.17;;;;;;;13.00;100.00;100192.97;4993289;28;20204;-74
2021/06/22 00:36:33;;;;;;;0.90;0.90;;;;;;;13.07;100.00;100188.56;4993062;28;20451;-75
2021/06/22 00:38:58;;;;;;;1.03;1.03;;;;;;;13.02;100.00;100182.50;4992879;28;20633;-74
2021/06/22 00:41:23;;;;;;;1.60;1.50;;;;;;;13.02;100.00;100182.50;4993273;28;20268;-74
2021/06/22 00:43:49;;;;;;;0.60;0.60;;;;;;;13.02;100.00;100180.56;4992959;28;20545;-74
2021/06/22 00:46:14;;;;;;;15.53;1.27;;;;;;;13.02;100.00;100177.00;4992790;28;20629;-74
2021/06/22 00:48:40;;;;;;;1.47;1.37;;;;;;;12.96;100.00;100186.56;4993047;28;20205;-73
2021/06/22 00:51:05;;;;;;;1.23;1.13;;;;;;;12.89;100.00;100184.34;4992655;28;20200;-73
2021/06/22 00:53:30;;;;;;;1.77;1.67;;;;;;;12.84;100.00;100186.47;4992637;28;20243;-76
2021/06/22 00:55:57;;;;;;;1.70;1.60;;;;;;;12.81;100.00;100185.19;4992717;28;20173;-74
2021/06/22 00:58:23;;;;;;;1.23;1.10;;;;;;;12.81;100.00;100185.19;4992750;28;20173;-74
2021/06/22 01:00:49;;;;;;;4.93;1.50;;;;;;;12.80;100.00;100197.31;4974877;28;20240;-74
2021/06/22 01:03:15;;;;;;;1.33;1.23;;;;;;;12.74;100.00;100201.38;4992811;28;20243;-74
2021/06/22 01:05:40;;;;;;;1.50;1.40;;;;;;;12.70;100.00;100197.69;4992068;28;20873;-74
2021/06/22 01:08:05;;;;;;;2.10;2.00;;;;;;;12.70;100.00;100209.44;4992734;28;20177;-74
2021/06/22 01:10:31;;;;;;;1.33;1.23;;;;;;;12.72;100.00;100207.16;4992318;28;20205;-75
2021/06/22 01:12:57;;;;;;;1.53;1.43;;;;;;;12.72;100.00;100200.88;4992361;28;20664;-74
2021/06/22 01:15:31;;;;;;;1.60;1.50;;;;;;;12.72;100.00;100209.91;4974834;28;20185;-74
2021/06/22 01:17:59;;;;;;;1.67;1.57;;;;;;;12.66;100.00;100211.25;4992116;28;20198;-74
2021/06/22 01:20:30;;;;;;;8.40;3.43;;;;;;;12.67;100.00;100220.28;4991858;28;20703;-75
2021/06/22 01:22:56;;;;;;;2.20;2.10;;;;;;;12.66;100.00;100224.16;4992206;28;20692;-74
2021/06/22 01:25:22;;;;;;;2.40;1.90;;;;;;;12.65;100.00;100212.38;4991333;28;20281;-74
2021/06/22 01:27:48;;;;;;;2.37;2.17;;;;;;;12.67;100.00;100209.31;4991932;28;20260;-75
2021/06/22 01:30:14;;;;;;;2.90;1.53;;;;;;;12.64;100.00;100218.19;4991787;28;20562;-74
2021/06/22 01:32:42;;;;;;;1.80;1.47;;;;;;;12.66;100.00;100224.97;4991841;28;20258;-75
2021/06/22 01:35:09;;;;;;;2.20;2.10;;;;;;;12.63;100.00;100224.81;4992031;28;20222;-75
2021/06/22 01:37:35;;;;;;;2.50;2.30;;;;;;;12.56;100.00;100225.31;4992124;28;20189;-73
2021/06/22 01:40:05;;;;;;;3.17;2.97;;;;;;;12.36;100.00;100243.31;4991792;28;20626;-75
2021/06/22 01:42:31;;;;;;;2.80;2.20;;;;;;;12.27;100.00;100238.97;4992208;28;20212;-77
2021/06/22 01:44:57;;;;;;;2.93;2.63;;;;;;;12.11;100.00;100245.00;4991967;28;20213;-74
2021/06/22 01:47:22;;;;;;;3.33;2.80;;;;;;;12.17;100.00;100240.16;4974313;28;20181;-75
2021/06/22 01:49:56;;;;;;;2.43;2.30;;;;;;;12.13;100.00;100228.22;4974034;28;20208;-77
2021/06/22 01:52:21;;;;;;;4.03;2.87;;;;;;;12.08;100.00;100234.69;4991680;28;20690;-75
2021/06/22 01:54:47;;;;;;;4.50;2.23;;;;;;;12.09;100.00;100232.75;4991948;28;20264;-77
2021/06/22 01:57:12;;;;;;;4.33;2.73;;;;;;;12.05;100.00;100237.28;4991646;28;20187;-74
2021/06/22 01:59:39;;;;;;;3.07;2.73;;;;;;;12.01;100.00;100233.59;4991343;28;20251;-74
2021/06/22 02:02:05;;;;;;;2.67;2.47;;;;;;;12.03;100.00;100236.81;4991578;28;20633;-73
2021/06/22 02:04:30;;;;;;;4.20;3.80;;;;;;;12.23;100.00;100236.09;4991757;28;20181;-76
2021/06/22 02:06:55;;;;;;;2.63;2.43;;;;;;;12.30;100.00;100247.38;4991142;28;20204;-74
2021/06/22 02:09:21;;;;;;;2.80;2.53;;;;;;;12.42;100.00;100252.13;4973933;28;20177;-74
2021/06/22 02:11:46;;;;;;;5.53;2.40;;;;;;;12.48;100.00;100264.53;4974121;28;20181;-77
2021/06/22 02:14:11;;;;;;;3.13;2.83;;;;;;;12.56;100.00;100280.13;4991638;28;20209;-73
2021/06/22 02:16:37;;;;;;;3.80;3.20;;;;;;;12.75;100.00;100280.56;4991461;28;20242;-74
2021/06/22 02:19:02;;;;;;;3.50;3.20;;;;;;;12.68;100.00;100282.19;4990456;28;20173;-73
2021/06/22 02:21:28;;;;;;;2.50;2.40;;;;;;;12.68;100.00;100277.50;4985608;28;20201;-77
2021/06/22 02:23:53;;;;;;;2.77;2.57;;;;;;;12.68;100.00;100268.47;4987787;28;20664;-75
2021/06/22 02:26:18;;;;;;;3.70;3.33;;;;;;;12.71;100.00;100281.53;4990967;28;20178;-78
2021/06/22 02:28:44;;;;;;;3.20;3.00;;;;;;;12.71;100.00;100273.28;4991314;28;20185;-74
2021/06/22 02:31:09;;;;;;;3.93;3.63;;;;;;;12.77;100.00;100269.25;4991144;28;20639;-76
2021/06/22 02:33:35;;;;;;;3.13;2.60;;;;;;;12.77;100.00;100272.78;4991097;28;20216;-74
2021/06/22 02:36:00;;;;;;;3.80;2.47;;;;;;;12.81;100.00;100284.69;4991184;28;20648;-76
2021/06/22 02:38:26;;;;;;;3.67;3.37;;;;;;;12.77;100.00;100288.44;4994321;28;20292;-73
2021/06/22 02:40:51;;;;;;;2.53;2.17;;;;;;;12.74;100.00;100286.38;4994891;28;20173;-73
2021/06/22 02:43:16;;;;;;;3.83;2.23;;;;;;;12.79;100.00;100275.22;4995150;28;20181;-76
2021/06/22 02:45:42;;;;;;;2.93;1.93;;;;;;;12.75;100.00;100258.63;4995020;28;20173;-78
2021/06/22 02:48:10;;;;;;;2.57;2.37;;;;;;;12.77;100.00;100250.06;4994925;28;20275;-77
2021/06/22 02:50:35;;;;;;;2.43;2.10;;;;;;;12.47;100.00;100247.31;4994668;28;20613;-73
2021/06/22 02:53:01;;;;;;;2.67;2.47;;;;;;;12.41;100.00;100242.31;4994832;28;20262;-76
2021/06/22 02:55:26;;;;;;;2.47;1.70;;;;;;;12.51;100.00;100250.97;4994725;28;20182;-77
2021/06/22 02:57:54;;;;;;;4.40;2.30;;;;;;;12.60;100.00;100261.91;4993597;28;20539;-74
2021/06/22 03:00:22;;;;;;;2.27;2.07;;;;;;;12.51;100.00;100264.69;4994592;28;20534;-73
2021/06/22 03:02:49;;;;;;;2.30;2.10;;;;;;;12.60;100.00;100274.81;4994787;28;20177;-77
2021/06/22 03:05:15;;;;;;;2.77;1.90;;;;;;;12.61;100.00;100290.94;4994695;28;20671;-76
2021/06/22 03:07:40;;;;;;;2.73;2.30;;;;;;;12.73;100.00;100298.44;4994288;28;20209;-77
2021/06/22 03:10:08;;;;;;;2.93;2.33;;;;;;;12.81;100.00;100297.59;4994359;28;20307;-73
2021/06/22 03:12:33;;;;;;;2.03;1.93;;;;;;;12.89;99.94;100291.28;4993230;28;20201;-76
2021/06/22 03:14:59;;;;;;;2.03;1.83;;;;;;;12.91;100.00;100290.97;4994514;28;20197;-74
2021/06/22 03:17:24;;;;;;;2.77;2.53;;;;;;;13.00;100.00;100287.00;4994466;28;20173;-74
2021/06/22 03:19:51;;;;;;;3.07;2.80;;;;;;;13.14;100.00;100291.47;4994296;28;20217;-75
2021/06/22 03:22:16;;;;;;;3.73;3.30;;;;;;;13.02;100.00;100295.75;4994573;28;20170;-78
2021/06/22 03:24:41;;;;;;;4.87;2.57;;;;;;;13.03;99.93;100293.78;4993401;28;20632;-75
2021/06/22 03:27:07;;;;;;;4.17;2.73;;;;;;;13.18;99.28;100286.94;4994386;28;20181;-75
2021/06/22 03:29:32;;;;;;;3.83;2.17;;;;;;;13.15;99.28;100293.88;4994182;28;20271;-76
2021/06/22 03:31:58;;;;;;;2.13;1.90;;;;;;;13.21;99.23;100292.59;4994297;28;20184;-74
2021/06/22 03:34:23;;;;;;;2.60;2.40;;;;;;;13.04;99.97;100301.69;4994433;28;20549;-76
2021/06/22 03:36:48;;;;;;;2.87;2.20;;;;;;;13.18;100.00;100300.66;4994091;28;20260;-78
2021/06/22 03:39:14;;;;;;;5.40;2.60;;;;;;;13.19;99.31;100307.78;4994053;28;20174;-77
2021/06/22 03:41:39;;;;;;;1.97;1.83;;;;;;;13.16;99.06;100309.19;4994090;28;20516;-77
2021/06/22 03:44:05;;;;;;;2.87;2.63;;;;;;;13.11;99.02;100306.66;4994098;28;20185;-76
2021/06/22 03:46:31;;;;;;;2.30;2.07;;;;;;;13.06;99.59;100313.13;4993911;28;20539;-77
2021/06/22 03:48:56;;;;;;;2.30;2.10;;;;;;;13.01;100.00;100307.81;4992871;28;20196;-77
2021/06/22 03:51:22;;;;;;;1.80;1.70;;;;;;;13.09;100.00;100320.69;4994250;28;20173;-77
2021/06/22 03:53:48;;;;;;;2.63;2.13;;;;;;;13.17;99.74;100321.00;4993735;28;20204;-77
2021/06/22 03:56:14;;;;;;;2.37;1.87;;;;;;;13.31;99.81;100330.63;4993635;28;20176;-77
2021/06/22 03:58:39;;;;;;;2.13;1.93;;;;;;;13.31;100.00;100332.56;4994373;28;20543;-76
2021/06/22 04:01:05;;;;;;;3.87;2.10;;;;;;;13.28;100.00;100339.50;4993710;28;20634;-78
2021/06/22 04:03:30;;;;;;;2.17;2.00;;;;;;;13.36;99.20;100349.63;4993795;28;20649;-78
2021/06/22 04:05:56;;;;;;;2.30;2.10;;;;;;;13.27;98.92;100340.63;4993398;28;20489;-77
2021/06/22 04:08:21;;;;;;;3.20;2.90;;;;;;;13.28;98.86;100331.25;4993643;28;20181;-77
2021/06/22 04:10:47;;;;;;;2.23;2.03;;;;;;;13.18;97.87;100328.09;4993457;28;20173;-77
2021/06/22 04:13:13;;;;;;;2.87;2.27;;;;;;;13.10;99.39;100326.97;4975921;28;20807;-77
2021/06/22 04:15:38;;;;;;;3.90;2.20;;;;;;;13.16;98.83;100320.16;4993564;28;20177;-77
2021/06/22 04:18:06;;;;;;;4.10;2.27;;;;;;;13.13;98.32;100329.06;4975955;28;20270;-78
2021/06/22 04:20:32;;;;;;;2.00;1.90;;;;;;;13.20;98.29;100332.13;4993142;28;20185;-78
2021/06/22 04:22:58;;;;;;;2.73;2.53;;;;;;;13.17;97.54;100331.97;4993424;28;20178;-77
2021/06/22 04:25:24;;;;;;;4.80;3.17;;;;;;;13.21;98.29;100339.22;4993350;28;20174;-77
2021/06/22 04:27:50;;;;;;;2.50;2.30;;;;;;;13.26;98.00;100340.97;4993265;28;20232;-77
2021/06/22 04:30:15;;;;;;;2.57;2.20;;;;;;;13.23;98.08;100347.13;4993045;28;20177;-77
2021/06/22 04:32:41;;;;;;;6.20;3.30;;;;;;;13.26;97.57;100346.44;4993148;28;20838;-77
2021/06/22 04:35:07;;;;;;;4.23;2.43;;;;;;;13.30;97.71;100358.34;4993191;28;20185;-77
2021/06/22 04:37:32;;;;;;;2.80;2.07;;;;;;;13.22;98.07;100365.53;4975571;28;20213;-78
2021/06/22 04:39:58;;;;;;;2.30;1.93;;;;;;;13.17;99.08;100370.38;4992872;28;20182;-76
2021/06/22 04:42:23;;;;;;;2.53;2.23;;;;;;;13.14;99.20;100354.53;4976004;28;20181;-77
2021/06/22 04:44:48;;;;;;;2.40;2.20;;;;;;;13.11;99.65;100356.81;4992509;28;20181;-77
2021/06/22 04:47:14;;;;;;;2.10;2.00;;;;;;;13.09;99.86;100342.63;4992275;28;20268;-78
2021/06/22 04:49:39;;;;;;;1.67;1.57;;;;;;;13.07;100.00;100341.38;4992181;28;20272;-78
2021/06/22 04:52:05;;;;;;;2.20;1.77;;;;;;;13.05;100.00;100336.22;4974773;28;20177;-76
2021/06/22 04:54:30;;;;;;;2.27;2.07;;;;;;;13.05;100.00;100352.66;4992514;28;20623;-77
2021/06/22 04:56:56;;;;;;;2.00;1.90;;;;;;;13.07;100.00;100352.34;4992413;28;20173;-76
2021/06/22 04:59:22;;;;;;;6.00;1.83;;;;;;;13.14;100.00;100349.88;4992180;28;20177;-74
2021/06/22 05:01:47;;;;;;;3.73;1.80;;;;;;;13.08;100.00;100348.47;4993249;28;20475;-74
2021/06/22 05:04:13;;;;;;;3.20;2.23;;;;;;;13.07;100.00;100358.63;4993149;28;20280;-74
2021/06/22 05:06:39;;;;;;;1.53;1.43;;;;;;;13.09;100.00;100353.59;4992012;28;20189;-73
2021/06/22 05:09:04;;;;;;;2.20;2.00;;;;;;;13.11;100.00;100354.06;4992471;28;20181;-73
2021/06/22 05:11:30;;;;;;;4.87;2.40;;;;;;;13.11;100.00;100354.06;4992082;28;20177;-73
2021/06/22 05:13:56;;;;;;;3.23;2.30;;;;;;;13.18;100.00;100355.50;4992351;28;20714;-73
2021/06/22 05:16:22;;;;;;;2.10;1.83;;;;;;;13.18;100.00;100356.34;4992225;28;20245;-74
2021/06/22 05:18:48;;;;;;;2.97;2.30;;;;;;;13.21;100.00;100355.69;4988366;28;20275;-74
2021/06/22 05:21:14;;;;;;;2.00;1.90;;;;;;;13.20;100.00;100369.72;4991844;28;20267;-76
2021/06/22 05:23:39;;;;;;;8.23;1.57;;;;;;;13.22;100.00;100362.78;4992122;28;20204;-73
2021/06/22 05:26:04;;;;;;;1.30;1.30;;;;;;;13.22;100.00;100365.53;4992079;28;20487;-74
2021/06/22 05:28:30;;;;;;;5.17;2.40;;;;;;;13.24;100.00;100371.47;4992012;28;20280;-75
2021/06/22 05:30:55;;;;;;;2.57;1.90;;;;;;;13.27;99.74;100373.56;4991996;28;20647;-73
2021/06/22 05:33:21;;;;;;;2.33;2.10;;;;;;;13.27;99.54;100380.97;4990649;28;20271;-74
2021/06/22 05:35:47;;;;;;;2.83;2.43;;;;;;;13.35;99.95;100371.91;4991946;28;20173;-76
2021/06/22 05:38:13;;;;;;;2.23;1.73;;;;;;;13.42;99.46;100366.69;4991937;28;20190;-73
2021/06/22 05:40:38;;;;;;;2.40;2.20;;;;;;;13.50;99.22;100365.84;4991807;28;20256;-73
2021/06/22 05:43:03;;;;;;;3.93;2.40;;;;;;;13.44;99.12;100364.41;4991709;28;20181;-74
2021/06/22 05:45:29;;;;;;;4.23;2.00;;;;;;;13.36;98.49;100346.88;4991933;28;20177;-73
2021/06/22 05:47:54;;;;;;;2.30;2.10;;;;;;;13.22;99.48;100343.56;4991746;28;20251;-73
2021/06/22 05:50:20;;;;;;;4.63;3.47;;;;;;;13.25;100.00;100344.84;4991532;28;20624;-73
2021/06/22 05:52:46;;;;;;;2.10;1.90;;;;;;;13.13;99.88;100345.50;4991657;28;20716;-74
2021/06/22 05:55:21;;;;;;;3.77;3.00;;;;;;;13.22;98.96;100351.81;4991673;28;20661;-73
2021/06/22 05:57:48;;;;;;;4.83;2.40;;;;;;;13.21;96.27;100363.09;4991550;28;20164;-76
2021/06/22 06:00:16;;;;;;;3.07;2.27;;;;;;;13.34;94.93;100376.59;4991540;28;20173;-74
2021/06/22 06:02:41;;;;;;;2.40;2.20;;;;;;;13.47;93.65;100385.72;4974049;28;20173;-73
2021/06/22 06:05:08;;;;;;;1.93;1.83;;;;;;;13.34;93.40;100381.28;4974021;28;20181;-74
2021/06/22 06:07:34;;;;;;;2.17;1.93;;;;;;;13.51;93.91;100388.59;4991243;28;20243;-75
2021/06/22 06:09:59;;;;;;;2.13;1.63;;;;;;;13.52;92.15;100393.75;4991504;28;20531;-73
2021/06/22 06:12:24;;;;;;;3.80;2.77;;;;;;;13.42;92.00;100402.38;4990895;28;20603;-74
2021/06/22 06:14:50;;;;;;;5.13;2.50;;;;;;;13.40;92.19;100396.41;4991413;28;20204;-74
2021/06/22 06:17:15;;;;;;;2.93;2.70;;;;;;;13.47;92.91;100404.94;4991330;28;20263;-75
2021/06/22 06:19:40;;;;;;;2.57;2.00;;;;;;;13.77;93.17;100404.91;4991191;28;20189;-74
2021/06/22 06:22:06;;;;;;;7.03;3.40;;;;;;;13.53;91.19;100392.63;4988976;28;20267;-74
2021/06/22 06:24:31;;;;;;;2.47;2.30;;;;;;;13.50;91.90;100393.28;4991048;28;20213;-74
2021/06/22 06:27:03;;;;;;;3.03;2.60;;;;;;;13.58;92.87;100392.41;4991234;28;20263;-73
2021/06/22 06:32:27;;;;;;;5.40;4.20;;;;;;;13.44;92.80;100402.03;4989530;28;20202;-73
2021/06/22 06:34:52;;;;;;;5.70;4.03;;;;;;;13.56;92.30;100399.38;4991304;28;20170;-73
2021/06/22 06:37:17;;;;;;;5.33;4.83;;;;;;;13.65;92.55;100395.44;4991332;28;20634;-74
2021/06/22 06:39:43;;;;;;;5.73;3.83;;;;;;;13.69;91.32;100404.63;4991460;28;20177;-73
2021/06/22 06:42:08;;;;;;;3.77;3.47;;;;;;;13.66;92.09;100394.31;4991226;28;20173;-74
2021/06/22 06:44:34;;;;;;;4.20;3.90;;;;;;;13.79;92.13;100402.63;4991176;28;20174;-73
2021/06/22 06:46:59;;;;;;;4.43;4.10;;;;;;;13.89;91.45;100413.22;4991086;28;20188;-73
2021/06/22 06:49:25;;;;;;;4.27;3.87;;;;;;;13.79;91.40;100402.63;4990943;28;20265;-75
2021/06/22 06:51:50;;;;;;;4.30;3.90;;;;;;;13.85;91.43;100404.03;4991108;28;20674;-76
2021/06/22 06:54:15;;;;;;;5.20;4.70;;;;;;;13.93;90.92;100406.72;4990972;28;20558;-77
2021/06/22 06:56:41;;;;;;;6.70;4.77;;;;;;;14.06;91.22;100407.59;4991095;28;20209;-74
2021/06/22 06:59:06;;;;;;;5.60;5.10;;;;;;;14.12;89.85;100399.94;4990970;28;20177;-74
2021/06/22 07:01:31;;;;;;;5.17;4.77;;;;;;;14.27;90.84;100402.88;4991069;28;20641;-74
2021/06/22 07:03:58;;;;;;;4.60;4.20;;;;;;;14.09;89.64;100401.44;4991138;28;20236;-73
2021/06/22 07:06:24;;;;;;;4.97;3.73;;;;;;;14.08;90.01;100404.50;4990904;28;20170;-73
2021/06/22 07:08:50;;;;;;;5.00;4.50;;;;;;;14.20;89.53;100413.63;4990853;28;20227;-73
2021/06/22 07:11:18;;;;;;;5.63;4.87;;;;;;;14.35;88.50;100414.94;4991091;28;20185;-75
2021/06/22 07:13:44;;;;;;;6.87;5.43;;;;;;;14.04;90.10;100414.56;4990793;28;20200;-74
2021/06/22 07:16:09;;;;;;;4.57;4.00;;;;;;;14.11;88.96;100426.63;4990854;28;20170;-75
2021/06/22 07:18:34;;;;;;;3.20;3.00;;;;;;;14.09;88.66;100414.38;4990912;28;20540;-74
2021/06/22 07:21:00;;;;;;;6.70;3.87;;;;;;;14.10;88.80;100418.72;4990600;28;20192;-76
2021/06/22 07:23:26;;;;;;;4.40;4.00;;;;;;;14.26;88.41;100417.75;4990794;28;20176;-74
2021/06/22 07:25:52;;;;;;;4.00;3.60;;;;;;;14.57;87.54;100422.03;4994559;28;20173;-74
2021/06/22 07:28:17;;;;;;;3.80;3.50;;;;;;;14.69;86.09;100419.31;4994311;28;20219;-75
2021/06/22 07:30:42;;;;;;;2.70;2.50;;;;;;;14.52;85.50;100417.56;4993974;28;20640;-74
2021/06/22 07:33:08;;;;;;;4.60;3.33;;;;;;;14.35;86.41;100414.94;4993773;28;20205;-74
2021/06/22 07:35:34;;;;;;;4.10;3.80;;;;;;;14.51;86.37;100413.22;4993782;28;20429;-74
2021/06/22 07:38:00;;;;;;;5.07;3.83;;;;;;;14.43;85.25;100411.31;4976286;28;20173;-74
2021/06/22 07:40:25;;;;;;;4.03;3.40;;;;;;;14.64;85.19;100421.50;4993472;28;20203;-74
2021/06/22 07:42:52;;;;;;;3.20;2.97;;;;;;;14.63;84.24;100419.91;4993682;28;20529;-74
2021/06/22 07:45:18;;;;;;;3.13;2.63;;;;;;;14.60;82.36;100418.59;4993665;28;20600;-75
2021/06/22 07:47:44;;;;;;;2.20;2.10;;;;;;;14.75;83.29;100415.22;4993521;28;20169;-75
2021/06/22 07:50:10;;;;;;;4.03;3.13;;;;;;;14.88;83.07;100422.34;4993278;28;20200;-75
2021/06/22 07:52:36;;;;;;;5.07;2.37;;;;;;;14.78;81.88;100417.31;4993290;28;20275;-74
2021/06/22 07:55:01;;;;;;;4.10;2.87;;;;;;;14.80;82.03;100430.72;4993469;28;20185;-75
2021/06/22 07:57:26;;;;;;;2.50;2.30;;;;;;;14.82;82.32;100422.91;4975807;28;20533;-75
2021/06/22 07:59:52;;;;;;;2.50;1.50;;;;;;;14.73;81.74;100435.94;4993186;28;20176;-74
2021/06/22 08:02:17;;;;;;;2.13;1.90;;;;;;;14.92;81.80;100438.19;4993497;28;20227;-75
2021/06/22 08:04:42;;;;;;;3.00;1.70;;;;;;;15.14;81.62;100429.50;4993391;28;20602;-74
2021/06/22 08:07:08;;;;;;;3.53;2.23;;;;;;;14.98;80.05;100431.31;4992962;28;20177;-74
2021/06/22 08:09:33;;;;;;;2.00;1.80;;;;;;;14.90;77.80;100427.53;4992912;28;20173;-74
2021/06/22 08:12:00;;;;;;;2.67;1.50;;;;;;;15.03;79.85;100436.59;4993120;28;20205;-73
2021/06/22 08:14:25;;;;;;;1.83;1.63;;;;;;;15.27;79.23;100433.06;4993059;28;20711;-74
2021/06/22 08:16:50;;;;;;;1.57;1.43;;;;;;;15.21;79.16;100429.75;4993316;28;20173;-74
2021/06/22 08:19:16;;;;;;;2.10;2.00;;;;;;;14.98;78.98;100428.56;4975648;28;20543;-75
2021/06/22 08:21:41;;;;;;;4.70;2.40;;;;;;;14.82;79.87;100437.47;4992789;28;20187;-74
2021/06/22 08:24:07;;;;;;;2.13;1.40;;;;;;;14.89;80.58;100431.41;4991729;28;20298;-74
2021/06/22 08:26:32;;;;;;;1.77;1.60;;;;;;;14.90;80.03;100441.28;4976806;28;20180;-74
2021/06/22 08:28:58;;;;;;;5.80;2.10;;;;;;;15.09;80.73;100429.75;4993004;28;20646;-74
2021/06/22 08:31:24;;;;;;;2.30;2.10;;;;;;;14.97;80.02;100437.97;4993046;28;20192;-74
2021/06/22 08:33:49;;;;;;;1.90;1.70;;;;;;;14.82;79.94;100437.47;4992626;28;20271;-75
2021/06/22 08:36:15;;;;;;;1.40;1.30;;;;;;;14.88;80.44;100433.34;4988785;28;20185;-75
2021/06/22 08:38:41;;;;;;;2.90;2.10;;;;;;;14.92;81.31;100439.00;4990291;28;20243;-74
2021/06/22 08:41:07;;;;;;;1.77;1.67;;;;;;;14.84;80.10;100443.44;4974905;28;20173;-75
2021/06/22 08:43:33;;;;;;;3.20;2.03;;;;;;;14.98;79.42;100431.31;4992256;28;20181;-75
2021/06/22 08:46:05;;;;;;;1.77;0.97;;;;;;;14.94;77.42;100439.47;4990784;28;20292;-74
2021/06/22 08:48:32;;;;;;;3.33;1.60;;;;;;;15.00;78.01;100445.53;4992183;28;20188;-75
2021/06/22 08:50:57;;;;;;;2.07;1.87;;;;;;;15.17;78.30;100448.88;4989498;28;20192;-75
2021/06/22 08:53:23;;;;;;;2.10;1.13;;;;;;;15.13;77.38;100453.47;4991912;28;20201;-75
2021/06/22 08:55:49;;;;;;;3.10;1.50;;;;;;;15.02;77.31;100446.78;4992195;28;20470;-75
2021/06/22 08:58:17;;;;;;;2.53;1.33;;;;;;;15.20;77.23;100454.88;4986689;28;20708;-73
2021/06/22 09:00:45;;;;;;;2.50;1.67;;;;;;;15.10;77.48;100450.59;4986213;28;20177;-73
2021/06/22 09:03:14;;;;;;;2.60;1.67;;;;;;;15.21;76.55;100457.28;4992162;28;20185;-73
2021/06/22 09:05:41;;;;;;;1.73;1.10;;;;;;;15.68;78.10;100459.63;4992332;28;20215;-73
2021/06/22 09:08:22;;;;;;;1.37;0.83;;;;;;;15.74;73.37;100450.75;4987149;28;20316;-74
2021/06/22 09:10:50;;;;;;;1.40;0.97;;;;;;;15.55;75.27;100453.28;4991915;28;20177;-74
2021/06/22 09:13:25;;;;;;;2.27;1.00;;;;;;;15.99;76.00;100454.28;4992319;28;20190;-75
2021/06/22 09:15:55;;;;;;;1.33;1.20;;;;;;;16.03;75.40;100449.69;4992566;28;20157;-79
2021/06/22 09:18:23;;;;;;;1.83;1.43;;;;;;;15.83;74.24;100447.91;4975852;28;20256;-75
2021/06/22 09:20:49;;;;;;;1.40;1.30;;;;;;;15.99;75.09;100448.78;4990882;28;20772;-74
2021/06/22 09:23:20;;;;;;;1.90;1.80;;;;;;;15.63;74.94;100457.09;4992276;28;20264;-76
2021/06/22 09:25:47;;;;;;;2.07;1.13;;;;;;;15.38;75.57;100454.31;4992173;28;20224;-73
2021/06/22 09:28:14;;;;;;;2.80;1.30;;;;;;;15.36;75.84;100462.13;4992326;28;20292;-75
2021/06/22 09:30:50;;;;;;;0.80;0.80;;;;;;;15.61;73.79;100448.34;4992149;28;20188;-74
2021/06/22 09:33:36;;;;;;;0.77;0.77;;;;;;;15.62;72.93;100444.44;4992134;28;20684;-74
2021/06/22 09:36:17;;;;;;;1.13;0.87;;;;;;;15.82;75.07;100442.72;4990714;28;20181;-75
2021/06/22 09:38:47;;;;;;;0.90;0.90;;;;;;;15.87;73.07;100451.56;4992082;28;20227;-74
2021/06/22 09:41:25;;;;;;;1.73;1.23;;;;;;;15.59;73.36;100453.38;4991999;28;20261;-74
2021/06/22 09:44:00;;;;;;;1.53;1.33;;;;;;;15.52;74.66;100464.97;4991980;28;20164;-74
2021/06/22 09:46:33;;;;;;;1.30;1.20;;;;;;;15.65;74.47;100463.06;4991322;28;20192;-74
2021/06/22 09:49:00;;;;;;;1.63;1.30;;;;;;;15.66;75.06;100472.94;4991799;28;20212;-74
2021/06/22 09:51:31;;;;;;;1.63;1.23;;;;;;;15.72;75.13;100472.34;4991846;28;20165;-74
2021/06/22 09:54:09;;;;;;;1.33;1.23;;;;;;;15.85;74.88;100470.38;4991759;28;20211;-75
2021/06/22 09:56:35;;;;;;;1.10;1.00;;;;;;;15.91;74.99;100469.03;4991246;28;20527;-75
2021/06/22 09:59:09;;;;;;;1.10;1.00;;;;;;;15.65;74.02;100469.38;4989459;28;20401;-75
2021/06/22 10:01:36;;;;;;;0.97;0.97;;;;;;;15.67;75.13;100474.53;4991225;28;20194;-75
2021/06/22 10:04:13;;;;;;;6.00;2.67;;;;;;;15.63;74.48;100479.13;4987614;28;20185;-75
2021/06/22 10:06:38;;;;;;;1.10;1.10;;;;;;;15.65;74.63;100476.84;4982310;28;20548;-74
2021/06/22 10:09:04;;;;;;;4.20;1.97;;;;;;;15.64;75.20;100469.72;4991390;28;20188;-75
2021/06/22 10:11:52;;;;;;;1.13;1.10;;;;;;;15.60;74.61;100477.03;4973844;28;20181;-75
2021/06/22 10:14:28;;;;;;;1.80;1.00;;;;;;;15.65;73.48;100477.63;4989477;28;20227;-75
2021/06/22 10:16:55;;;;;;;1.40;1.30;;;;;;;15.90;73.64;100467.38;4971099;28;20239;-75
2021/06/22 10:19:22;;;;;;;2.10;1.50;;;;;;;15.73;73.59;100479.47;4968520;28;20182;-74
2021/06/22 10:21:49;;;;;;;1.77;1.10;;;;;;;15.86;71.84;100479.44;4990770;28;20181;-74
2021/06/22 10:24:15;;;;;;;1.90;1.20;;;;;;;16.04;72.08;100473.34;4990173;28;20784;-74
2021/06/22 10:26:42;;;;;;;1.57;1.40;;;;;;;16.13;70.90;100473.22;4988706;28;20193;-75
2021/06/22 10:29:07;;;;;;;2.10;1.13;;;;;;;16.62;71.16;100473.84;4987493;28;20180;-73
2021/06/22 10:31:35;;;;;;;3.23;1.40;;;;;;;16.49;67.72;100468.72;4978851;28;20177;-74
2021/06/22 10:34:00;;;;;;;3.50;0.87;;;;;;;16.73;69.75;100471.44;4991638;28;20204;-74
2021/06/22 10:36:34;;;;;;;1.80;1.23;;;;;;;16.61;67.42;100472.25;4991252;28;20177;-73
2021/06/22 10:39:04;;;;;;;1.03;1.03;;;;;;;16.96;67.83;100485.47;4991135;28;20177;-75
2021/06/22 10:41:36;;;;;;;1.87;1.10;;;;;;;16.92;68.83;100479.03;4991277;28;20199;-75
2021/06/22 10:44:07;;;;;;;1.50;1.13;;;;;;;16.87;69.67;100487.56;4991824;28;20174;-74
2021/06/22 10:46:32;;;;;;;2.57;1.20;;;;;;;17.27;68.54;100484.69;4993505;28;20170;-73
2021/06/22 10:49:17;;;;;;;2.60;1.20;;;;;;;17.32;67.72;100489.16;4991882;28;20177;-73
2021/06/22 10:51:45;;;;;;;3.10;1.20;;;;;;;17.34;67.29;100481.31;4991142;28;20723;-74
2021/06/22 10:54:13;;;;;;;0.80;0.80;;;;;;;17.25;67.76;100490.59;4979869;28;20228;-74
2021/06/22 10:56:42;;;;;;;1.63;0.90;;;;;;;16.90;67.81;100495.94;4990969;28;20170;-74
2021/06/22 10:59:11;;;;;;;2.27;1.20;;;;;;;16.85;70.25;100492.66;4975958;28;20339;-74
2021/06/22 11:01:59;;;;;;;4.33;1.30;;;;;;;16.73;71.30;100489.94;4994901;28;20174;-73
2021/06/22 11:04:24;;;;;;;3.23;1.60;;;;;;;16.62;72.86;100487.66;4994927;28;20212;-73
2021/06/22 11:07:06;;;;;;;4.20;1.43;;;;;;;16.59;73.39;100493.06;4994700;28;20208;-74
2021/06/22 11:09:32;;;;;;;3.43;1.63;;;;;;;16.78;73.13;100489.69;4994476;28;20180;-74
2021/06/22 11:12:19;;;;;;;2.33;1.40;;;;;;;16.54;71.82;100493.31;4994995;28;20169;-74
2021/06/22 11:15:00;;;;;;;1.50;1.20;;;;;;;16.52;72.99;100495.63;4976900;28;20644;-73
2021/06/22 11:17:40;;;;;;;2.63;1.27;;;;;;;16.40;70.01;100496.47;4994481;28;20177;-74
2021/06/22 11:20:07;;;;;;;2.57;1.10;;;;;;;16.73;70.99;100492.69;4994284;28;20181;-73
2021/06/22 11:23:00;;;;;;;1.43;1.20;;;;;;;16.40;68.26;100492.91;4994517;28;20200;-74